Weather observations for the past three days for
Westerly, Westerly State Airport
| Date | Time (edt) | Wind (mph) | Vis. (mi.) | Weather | Sky Cond. | Temperature (ºF) | Relative Humidity | Wind Chill (°F) | Heat Index (°F) | Pressure | Precipitation (in) | ||||||
|---|---|---|---|---|---|---|---|---|---|---|---|---|---|---|---|---|---|
| Air | Dwpt | 6 hour | altimeter (in) | sea level (mb) | 1 hr | 3 hr | 6 hr | ||||||||||
| Max. | Min. | ||||||||||||||||
| 07 | 16:53 | NW 13 G 24 | 10.00 | Fair | CLR | 64 | 28 | 26% | 29.71 | 1006.0 | |||||||
| 07 | 15:53 | NW 9 G 26 | 10.00 | Fair | CLR | 63 | 26.1 | 25% | 29.71 | 1005.9 | |||||||
| 07 | 14:53 | NW 9 G 18 | 10.00 | Fair | CLR | 62.1 | 28.9 | 29% | 29.72 | 1006.5 | |||||||
| 07 | 13:53 | W 9 G 20 | 10.00 | Fair | CLR | 62.1 | 28 | 62.1 | 50 | 28% | 29.74 | 1007.1 | |||||
| 07 | 12:53 | W 8 G 20 | 10.00 | Fair | CLR | 61 | 30.9 | 32% | 29.76 | 1007.7 | |||||||
| 07 | 11:53 | W 8 G 16 | 10.00 | Fair | CLR | 59 | 35.1 | 41% | 29.78 | 1008.4 | |||||||
| 07 | 10:53 | W 8 | 10.00 | Fair | CLR | 57 | 39.9 | 53% | 29.79 | 1008.8 | |||||||
| 07 | 09:53 | Vrbl 5 | 10.00 | Mostly Cloudy | FEW019 BKN110 | 54 | 46 | 75% | 29.8 | 1009.1 | |||||||
| 07 | 08:53 | Vrbl 3 | 10.00 | Light Rain | SCT080 BKN100 | 50 | 46.9 | 89% | 29.81 | 1009.2 | |||||||
| 07 | 07:53 | Calm | 7.00 | Light Rain | FEW008 BKN065 OVC080 | 50 | 48 | 54 | 50 | 93% | 29.8 | 1009.0 | 0.05 | 0.25 | |||
| 07 | 06:53 | Vrbl 3 | 10.00 | Light Rain | FEW055 OVC070 | 50 | 48 | 93% | 29.79 | 1008.6 | 0.01 | ||||||
| 07 | 05:53 | Vrbl 3 | 10.00 | Light Rain | BKN010 BKN047 OVC065 | 51.1 | 48.9 | 92% | 29.76 | 1007.5 | 0.01 | ||||||
| 07 | 04:53 | N 6 | 10.00 | Light Rain | FEW012 BKN080 OVC100 | 52 | 50 | 93% | 29.75 | 1007.3 | 0.05 | 0.18 | |||||
| 07 | 03:53 | N 7 | 8.00 | Light Rain | FEW038 SCT050 OVC060 | 52 | 51.1 | 97% | 29.74 | 1006.9 | 0.13 | ||||||
| 07 | 02:53 | Calm | 4.00 | Fog/Mist | FEW009 OVC024 | 54 | 53.1 | 97% | 29.71 | 1006.1 | |||||||
| 07 | 01:53 | Calm | 3.00 | Fog/Mist | SCT007 OVC024 | 54 | 53.1 | 54 | 53.1 | 97% | 29.72 | 1006.2 | 0.02 | ||||
| 07 | 00:53 | SW 3 | 5.00 | Fog/Mist | FEW006 OVC013 | 53.1 | 53.1 | 100% | 29.75 | 1007.4 | 0.02 | ||||||
| 06 | 23:53 | Calm | 5.00 | Light Rain Fog/Mist | SCT008 OVC100 | 53.1 | 52 | 96% | 29.76 | 1007.6 | |||||||
| 06 | 22:53 | S 5 | 5.00 | Fog/Mist | FEW004 BKN008 OVC110 | 53.1 | 52 | 96% | 29.76 | 1007.8 | |||||||
| 06 | 21:53 | SW 9 | 6.00 | Fog/Mist | OVC006 | 54 | 53.1 | 97% | 29.77 | 1008.0 | |||||||
| 06 | 20:53 | SW 8 | 7.00 | Overcast | OVC006 | 54 | 53.1 | 97% | 29.78 | 1008.4 | |||||||
| 06 | 19:53 | SW 7 | 7.00 | Overcast | OVC006 | 53.1 | 52 | 57.9 | 53.1 | 96% | 29.78 | 1008.3 | 0.25 | ||||
| 06 | 18:53 | SW 13 G 21 | 6.00 | Fog/Mist | FEW003 OVC012 | 53.1 | 52 | 96% | 29.77 | 1008.0 | 0.06 | ||||||
| 06 | 17:53 | S 12 G 23 | 1.75 | Light Rain Fog/Mist | BKN005 OVC010 | 53.1 | 52 | 96% | 29.77 | 1008.1 | 0.14 | ||||||
| 06 | 16:53 | S 12 | 6.00 | Light Rain Fog/Mist | SCT017 SCT034 OVC044 | 54 | 52 | 93% | 29.79 | 1008.8 | 0.02 | 0.05 | |||||
| 06 | 15:53 | S 13 G 23 | 6.00 | Light Rain Fog/Mist | FEW055 OVC070 | 55 | 52 | 90% | 29.8 | 1009.1 | 0.03 | ||||||
| 06 | 14:53 | S 17 G 28 | 7.00 | Light Rain | OVC100 | 55.9 | 52 | 87% | 29.82 | 1009.6 | |||||||
| 06 | 13:53 | S 16 G 26 | 10.00 | Overcast | OVC080 | 57.9 | 51.1 | 60.1 | 55.9 | 78% | 29.84 | 1010.3 | |||||
| 06 | 12:53 | S 17 G 39 | 10.00 | Fair | CLR | 59 | 51.1 | 75% | 29.85 | 1010.7 | |||||||
| 06 | 11:53 | S 12 G 24 | 10.00 | Fair | CLR | 59 | 52 | 78% | 29.88 | 1011.8 | |||||||
| 06 | 10:53 | SW 14 G 28 | 10.00 | Fair | CLR | 60.1 | 52 | 75% | 29.89 | 1012.0 | |||||||
| 06 | 09:53 | S 13 G 26 | 10.00 | Fair | CLR | 59 | 51.1 | 75% | 29.88 | 1011.9 | |||||||
| 06 | 08:53 | SW 17 G 29 | 10.00 | Partly Cloudy | FEW011 SCT017 | 57.9 | 52 | 81% | 29.89 | 1012.2 | |||||||
| 06 | 07:53 | SW 13 G 23 | 9.00 | Overcast | BKN009 OVC014 | 55.9 | 52 | 55.9 | 54 | 87% | 29.9 | 1012.5 | |||||
| 06 | 06:53 | SW 7 | 8.00 | Overcast | OVC009 | 54 | 51.1 | 90% | 29.91 | 1012.6 | |||||||
| 06 | 05:53 | SW 8 G 22 | 8.00 | Overcast | BKN008 OVC015 | 54 | 51.1 | 90% | 29.9 | 1012.3 | |||||||
| 06 | 04:53 | W 8 | 9.00 | Overcast | OVC009 | 55 | 52 | 90% | 29.91 | 1012.6 | |||||||
| 06 | 03:53 | SW 9 G 20 | 10.00 | Mostly Cloudy | BKN011 | 55.9 | 52 | 87% | 29.91 | 1012.7 | |||||||
| 06 | 02:53 | SW 13 G 20 | 10.00 | A Few Clouds | FEW015 | 55.9 | 52 | 87% | 29.91 | 1012.8 | |||||||
| 06 | 01:53 | SW 12 G 17 | 10.00 | Fair | CLR | 55.9 | 52 | 57 | 55 | 87% | 29.91 | 1012.8 | |||||
| 06 | 00:53 | SW 9 G 20 | 10.00 | Fair | CLR | 55 | 51.1 | 87% | 29.92 | 1013.3 | |||||||
| 05 | 23:53 | SW 12 G 22 | 10.00 | Fair | CLR | 55 | 51.1 | 87% | 29.92 | 1013.1 | |||||||
| 05 | 22:53 | S 10 G 18 | 10.00 | Fair | CLR | 55.9 | 50 | 81% | 29.92 | 1013.1 | |||||||
| 05 | 21:53 | Calm | 10.00 | Fair | CLR | 55 | 48.9 | 80% | 29.91 | 1012.7 | |||||||
| 05 | 20:53 | Calm | 10.00 | Fair | CLR | 55 | 48 | 77% | 29.9 | 1012.4 | |||||||
| 05 | 19:53 | S 14 G 26 | 10.00 | Fair | CLR | 57 | 48.9 | 60.1 | 55.9 | 74% | 29.86 | 1011.0 | |||||
| 05 | 18:53 | SW 10 G 23 | 10.00 | Fair | CLR | 57 | 48.9 | 74% | 29.87 | 1011.3 | |||||||
| 05 | 17:53 | SW 14 G 29 | 10.00 | Fair | CLR | 57 | 48.9 | 74% | 29.86 | 1011.1 | |||||||
| 05 | 16:53 | S 17 G 30 | 10.00 | Fair | CLR | 57.9 | 48.9 | 72% | 29.85 | 1010.7 | |||||||
| 05 | 15:53 | SW 14 G 29 | 10.00 | Fair | CLR | 59 | 48.9 | 69% | 29.86 | 1010.9 | |||||||
| 05 | 14:53 | S 17 G 30 | 10.00 | Fair | CLR | 59 | 48.9 | 69% | 29.87 | 1011.3 | |||||||
| 05 | 13:53 | S 17 G 35 | 10.00 | Fair | CLR | 60.1 | 48.9 | 61 | 54 | 67% | 29.87 | 1011.5 | |||||
| 05 | 12:53 | S 15 G 22 | 10.00 | Fair | CLR | 60.1 | 50 | 70% | 29.88 | 1011.7 | |||||||
| 05 | 11:53 | S 14 G 23 | 10.00 | Fair | CLR | 60.1 | 50 | 70% | 29.9 | 1012.5 | |||||||
| 05 | 10:53 | S 15 G 24 | 10.00 | Mostly Cloudy | BKN100 | 57 | 48.9 | 74% | 29.9 | 1012.3 | |||||||
| 05 | 09:53 | S 10 | 10.00 | Fair | CLR | 57.9 | 50 | 75% | 29.89 | 1012.1 | |||||||
| 05 | 08:53 | S 10 | 10.00 | Fair | CLR | 55.9 | 50 | 81% | 29.9 | 1012.4 | |||||||
| 05 | 07:53 | SW 9 | 10.00 | Fair | CLR | 55 | 48.9 | 55 | 46 | 80% | 29.89 | 1012.2 | |||||
| 05 | 06:53 | S 9 | 9.00 | Fair | CLR | 52 | 48 | 86% | 29.88 | 1011.8 | |||||||
| 05 | 05:53 | S 8 | 9.00 | A Few Clouds | FEW095 | 50 | 46.9 | 89% | 47 | 29.87 | 1011.3 | ||||||
| 05 | 04:53 | S 9 | 10.00 | Fair | CLR | 50 | 46.9 | 89% | 47 | 29.87 | 1011.5 | ||||||
| 05 | 03:53 | S 5 | 8.00 | A Few Clouds | FEW095 | 48.9 | 46.9 | 93% | 48 | 29.87 | 1011.5 | ||||||
| 05 | 02:53 | S 5 | 7.00 | Fair | CLR | 46 | 45 | 96% | 44 | 29.88 | 1011.6 | ||||||
| 05 | 01:53 | S 3 | 10.00 | Fair | CLR | 50 | 46.9 | 52 | 50 | 89% | 29.89 | 1012.0 | |||||
| 05 | 00:53 | S 9 | 10.00 | Fair | CLR | 50 | 46.9 | 89% | 47 | 29.89 | 1012.2 | ||||||
| 04 | 23:53 | SW 8 | 10.00 | Fair | CLR | 50 | 46.9 | 89% | 47 | 29.9 | 1012.4 | ||||||
| 04 | 22:53 | SW 7 | 10.00 | Fair | CLR | 50 | 46.9 | 89% | 48 | 29.9 | 1012.5 | ||||||
| 04 | 21:53 | SW 9 | 10.00 | Fair | CLR | 51.1 | 46.9 | 86% | 29.91 | 1012.6 | |||||||
| 04 | 20:53 | SW 7 G 20 | 10.00 | Fair | CLR | 51.1 | 46 | 83% | 29.89 | 1012.0 | |||||||
| 04 | 19:53 | SW 7 | 10.00 | Fair | CLR | 52 | 45 | 63 | 52 | 77% | 29.87 | 1011.4 | |||||
| 04 | 18:53 | SW 16 G 25 | 10.00 | Fair | CLR | 54 | 45 | 72% | 29.85 | 1010.6 | |||||||
| 04 | 17:53 | S 17 G 29 | 10.00 | Fair | CLR | 55.9 | 44.1 | 65% | 29.85 | 1010.6 | |||||||
| Date | Time (edt) | Wind (mph) | Vis. (mi.) | Weather | Sky Cond. | Air | Dwpt | Max. | Min. | Relative Humidity | Wind Chill (°F) | Heat Index (°F) | altimeter (in) | sea level (mb) | 1 hr | 3 hr | 6 hr |
| 6 hour | |||||||||||||||||
| Temperature (ºF) | Pressure | Precipitation (in) | |||||||||||||||